Flight Track Log - Related Links

Times and Time Zones

All times are in EDT time to prevent confusion due to time zone crossing. See the EGF4373 flight status page for this flight to view local times or setup timezone preferences in your user account.

Time Position Orientation Groundspeed Altitude Reporting Facility
EDT Latitude Longitude Course Direction KTS MPH feet Rate Location/Type
Tue 09:51:19 AM 40.1178 -88.3278 337° Northwest 184 212 4,000  Level Chicago Center
Tue 09:52:00 AM 40.2444 -88.3866 335° Northwest  Level FlightAware Approximate
Tue 09:52:21 AM 40.1753 -88.3656 333° Northwest 231 266 5,900  Level Chicago Center
Tue 09:53:00 AM 40.3140 -88.4269 346° North  Level FlightAware Approximate
Tue 09:53:23 AM 40.2392 -88.3986 338° Northwest 250 288 8,100  Level Chicago Center
Tue 09:54:00 AM 40.3830 -88.4706 330° Northwest  Level FlightAware Approximate
Tue 09:54:25 AM 40.3169 -88.4433 336° Northwest 255 293 10,600  Level Chicago Center
Tue 09:55:00 AM 40.4534 -88.5114 337° Northwest  Level FlightAware Approximate
Tue 09:55:27 AM 40.3875 -88.4833 337° Northwest 268 308 11,900  Level Chicago Center
Tue 09:56:00 AM 40.5266 -88.5533 337° Northwest  Level FlightAware Approximate
Tue 09:56:29 AM 40.4661 -88.5286 336° Northwest 298 343 13,300  Level Chicago Center
Tue 09:57:31 AM 40.5450 -88.5736 337° Northwest 307 353 14,900 1,210 Climbing Chicago Center
Tue 09:58:33 AM 40.6247 -88.6183 337° Northwest 312 359 15,800 484 Climbing Chicago Center
Tue 09:59:35 AM 40.7139 -88.6719 336° Northwest 346 398 15,900 48 Climbing Chicago Center
Tue 10:00:37 AM 40.8214 -88.7317 337° Northwest 349 402 15,900  Level Chicago Center
Tue 10:01:39 AM 40.9231 -88.7203 North 370 426 15,900 -144 Level Chicago Center
Tue 10:02:42 AM 41.0244 -88.7014 North 368 423 15,600 -816 Descending Chicago Center
Tue 10:03:44 AM 41.1289 -88.6853 North 374 430 14,200 -1,403 Descending Chicago Center
Tue 10:04:46 AM 41.2292 -88.6714 North 365 420 12,700 -1,452 Descending Chicago Center
Tue 10:05:48 AM 41.3453 -88.6536 North 350 403 11,200 -823 Descending Chicago Center
Tue 10:06:50 AM 41.4247 -88.5717 38° Northeast 362 417 11,000 -97 Descending Chicago Center
Tue 10:07:52 AM 41.4989 -88.4833 42° Northeast 358 412 11,000  Level Chicago Center
Tue 10:08:54 AM 41.5750 -88.3931 42° Northeast 363 418 11,000  Level Chicago Center
Tue 10:09:56 AM 41.6519 -88.3031 41° Northeast 365 420 11,000  Level Chicago Center
Tue 10:10:58 AM 41.7294 -88.2111 42° Northeast 368 423 11,000 -145 Level Chicago Center
Tue 10:12:00 AM 41.7978 -88.1289 42° Northeast 322 371 10,700 -1,306 Descending Chicago Center
Tue 10:13:02 AM 41.8714 -88.0411 42° Northeast 292 336 8,300 -1,935 Descending Chicago Center
Tue 10:13:33 AM 41.9000 -88.0000 47° Northeast 289 333 7,700 -848 Descending Chicago TRACON
Tue 10:14:34 AM 41.9500 -87.9333 45° Northeast 251 289 7,000 -347 Descending Chicago TRACON
Tue 10:15:34 AM 42.0000 -87.8500 51° Northeast 279 321 7,000  Level Chicago TRACON
Tue 10:16:09 AM 42.0186 -87.8164 53° Northeast 260 299 7,000 -804 Level Chicago Center
Tue 10:17:11 AM 42.0519 -87.7386 60° Northeast 244 281 5,700 -1,016 Descending Chicago Center
Tue 10:18:13 AM 42.0686 -87.6364 78° East 241 277 4,900 -968 Descending Chicago Center
Tue 10:19:15 AM 42.0183 -87.6289 174° South 228 262 3,700 -1,161 Descending Chicago Center

Login

Don't have an account? Register now (free) for customized features, flight alerts, and more!